Time;durP1;ratioP1;P1;durP2;ratioP2;P2;SDS_P1;SDS_P2;PMS_P1;PMS_P2;Temp;Humidity;BMP_temperature;BMP_pressure;BME280_temperature;BME280_humidity;BME280_pressure;Samples;Min_cycle;Max_cycle;Signal;HPM_P1;HPM_P2
2022/09/14 00:00:38;;;;;;;;;;;;;;;;;;6289567;22;20289;-90
2022/09/14 00:03:04;;;;;;;;;;;;;;;;;;6292683;22;20379;-90
2022/09/14 00:05:33;;;;;;;;;;;;;;;;;;6267475;22;19948;-91
2022/09/14 00:08:00;;;;;;;;;;;;;;;;;;6296063;22;19918;-90
2022/09/14 00:10:25;;;;;;;;;;;;;;;;;;6294745;22;19993;-90
2022/09/14 00:12:51;;;;;;;;;;;;;;;;;;6292141;22;21024;-90
2022/09/14 00:15:17;;;;;;;;;;;;;;;;;;6270006;22;19922;-90
2022/09/14 00:17:43;;;;;;;;;;;;;;;;;;6264856;22;19914;-91
2022/09/14 00:20:09;;;;;;;;;;;;;;;;;;6294623;22;19925;-90
2022/09/14 00:22:35;;;;;;;;;;;;;;;;;;6291732;22;19925;-90
2022/09/14 00:25:01;;;;;;;;;;;;;;;;;;6294391;22;20353;-90
2022/09/14 00:27:27;;;;;;;;;;;;;;;;;;6321894;22;19930;-91
2022/09/14 00:29:53;;;;;;;;;;;;;;;;;;6319868;22;19924;-91
2022/09/14 00:32:19;;;;;;;;;;;;;;;;;;6268407;22;19980;-92
2022/09/14 00:34:45;;;;;;;;;;;;;;;;;;6294330;22;19915;-92
2022/09/14 00:37:11;;;;;;;;;;;;;;;;;;6269689;22;19989;-92
2022/09/14 00:39:37;;;;;;;;;;;;;;;;;;6294206;22;19923;-91
2022/09/14 00:42:03;;;;;;;;;;;;;;;;;;6272933;22;19921;-92
2022/09/14 00:44:29;;;;;;;;;;;;;;;;;;6270918;22;19926;-91
2022/09/14 00:46:55;;;;;;;;;;;;;;;;;;6267296;22;20757;-91
2022/09/14 00:49:21;;;;;;;;;;;;;;;;;;6268588;22;19919;-91
2022/09/14 00:51:47;;;;;;;;;;;;;;;;;;6268546;22;19980;-91
2022/09/14 00:54:13;;;;;;;;;;;;;;;;;;6273453;22;19962;-91
2022/09/14 00:56:39;;;;;;;;;;;;;;;;;;6296408;22;19919;-91
2022/09/14 00:59:05;;;;;;;;;;;;;;;;;;6295761;22;19922;-92
2022/09/14 01:01:31;;;;;;;;;;;;;;;;;;6273941;22;19993;-92
2022/09/14 01:03:57;;;;;;;;;;;;;;;;;;6297452;22;19950;-92
2022/09/14 01:06:23;;;;;;;;;;;;;;;;;;6296875;22;20358;-91
2022/09/14 01:08:49;;;;;;;;;;;;;;;;;;6268158;22;19986;-91
2022/09/14 01:11:15;;;;;;;;;;;;;;;;;;6296905;22;19915;-92
2022/09/14 01:13:41;;;;;;;;;;;;;;;;;;6267380;22;19923;-92
2022/09/14 01:16:07;;;;;;;;;;;;;;;;;;6272068;22;19958;-91
2022/09/14 01:18:34;;;;;;;;;;;;;;;;;;6269143;22;20247;-91
2022/09/14 01:21:00;;;;;;;;;;;;;;;;;;6272391;22;19986;-92
2022/09/14 01:23:26;;;;;;;;;;;;;;;;;;6269334;22;20046;-91
2022/09/14 01:25:52;;;;;;;;;;;;;;;;;;6295568;22;19922;-92
2022/09/14 01:28:18;;;;;;;;;;;;;;;;;;6297768;22;19918;-91
2022/09/14 01:30:44;;;;;;;;;;;;;;;;;;6296704;22;19918;-91
2022/09/14 01:33:10;;;;;;;;;;;;;;;;;;6271919;22;20349;-90
2022/09/14 01:35:36;;;;;;;;;;;;;;;;;;6293915;22;19968;-91
2022/09/14 01:38:02;;;;;;;;;;;;;;;;;;6263814;22;19918;-91
2022/09/14 01:40:28;;;;;;;;;;;;;;;;;;6298232;22;19926;-92
2022/09/14 01:42:54;;;;;;;;;;;;;;;;;;6268156;22;19918;-92
2022/09/14 01:45:20;;;;;;;;;;;;;;;;;;6270748;22;19949;-92
2022/09/14 01:47:47;;;;;;;;;;;;;;;;;;6269817;22;20043;-91
2022/09/14 01:50:14;;;;;;;;;;;;;;;;;;6272866;22;19929;-91
2022/09/14 01:52:40;;;;;;;;;;;;;;;;;;6267728;22;19926;-90
2022/09/14 01:55:06;;;;;;;;;;;;;;;;;;6270489;22;19971;-89
2022/09/14 01:57:32;;;;;;;;;;;;;;;;;;6295316;22;19989;-90
2022/09/14 01:59:58;;;;;;;;;;;;;;;;;;6323847;22;20314;-90
2022/09/14 02:02:24;;;;;;;;;;;;;;;;;;6271919;22;19918;-90
2022/09/14 02:04:50;;;;;;;;;;;;;;;;;;6294240;22;20406;-90
2022/09/14 02:07:16;;;;;;;;;;;;;;;;;;6319309;22;19919;-90
2022/09/14 02:09:42;;;;;;;;;;;;;;;;;;6294014;22;19919;-90
2022/09/14 02:12:08;;;;;;;;;;;;;;;;;;6323736;22;19946;-90
2022/09/14 02:14:34;;;;;;;;;;;;;;;;;;6288020;22;19922;-89
2022/09/14 02:17:00;;;;;;;;;;;;;;;;;;6271718;22;19918;-92
2022/09/14 02:19:26;;;;;;;;;;;;;;;;;;6297224;22;20323;-89
2022/09/14 02:21:52;;;;;;;;;;;;;;;;;;6293743;22;19925;-89
2022/09/14 02:24:18;;;;;;;;;;;;;;;;;;6271507;22;20400;-90
2022/09/14 02:26:44;;;;;;;;;;;;;;;;;;6264510;22;19952;-90
2022/09/14 02:29:10;;;;;;;;;;;;;;;;;;6268281;22;19925;-90
2022/09/14 02:31:36;;;;;;;;;;;;;;;;;;6295838;22;19914;-90
2022/09/14 02:34:02;;;;;;;;;;;;;;;;;;6298037;22;19918;-90
2022/09/14 02:36:29;;;;;;;;;;;;;;;;;;6270633;22;20251;-90
2022/09/14 02:38:55;;;;;;;;;;;;;;;;;;6292209;22;19919;-90
2022/09/14 02:41:21;;;;;;;;;;;;;;;;;;6269137;22;19928;-90
2022/09/14 02:43:47;;;;;;;;;;;;;;;;;;6293919;22;19918;-90
2022/09/14 02:46:13;;;;;;;;;;;;;;;;;;6298655;22;20255;-90
2022/09/14 02:48:39;;;;;;;;;;;;;;;;;;6267808;22;19926;-90
2022/09/14 02:51:05;;;;;;;;;;;;;;;;;;6264909;22;20346;-90
2022/09/14 02:53:31;;;;;;;;;;;;;;;;;;6263545;22;19922;-90
2022/09/14 02:55:57;;;;;;;;;;;;;;;;;;6265217;22;19919;-90
2022/09/14 02:58:23;;;;;;;;;;;;;;;;;;6265758;22;19915;-90
2022/09/14 03:00:49;;;;;;;;;;;;;;;;;;6262348;22;19926;-90
2022/09/14 03:03:15;;;;;;;;;;;;;;;;;;6291479;22;20267;-90
2022/09/14 03:05:41;;;;;;;;;;;;;;;;;;6265521;22;20340;-90
2022/09/14 03:08:07;;;;;;;;;;;;;;;;;;6268543;22;19958;-91
2022/09/14 03:10:33;;;;;;;;;;;;;;;;;;6264714;22;20389;-90
2022/09/14 03:12:59;;;;;;;;;;;;;;;;;;6292512;22;19922;-91
2022/09/14 03:15:25;;;;;;;;;;;;;;;;;;6267823;22;19915;-92
2022/09/14 03:17:51;;;;;;;;;;;;;;;;;;6290536;22;20267;-91
2022/09/14 03:20:18;;;;;;;;;;;;;;;;;;6294832;22;19967;-91
2022/09/14 03:22:44;;;;;;;;;;;;;;;;;;6265059;22;19919;-91
2022/09/14 03:25:10;;;;;;;;;;;;;;;;;;6267075;22;19919;-91
2022/09/14 03:27:36;;;;;;;;;;;;;;;;;;6290037;22;19980;-91
2022/09/14 03:30:02;;;;;;;;;;;;;;;;;;6269433;22;19926;-92
2022/09/14 03:32:28;;;;;;;;;;;;;;;;;;6269065;22;19919;-91
2022/09/14 03:34:54;;;;;;;;;;;;;;;;;;6289521;22;19915;-91
2022/09/14 03:37:20;;;;;;;;;;;;;;;;;;6268044;22;20529;-91
2022/09/14 03:39:48;;;;;;;;;;;;;;;;;;6287119;22;20268;-90
2022/09/14 03:42:16;;;;;;;;;;;;;;;;;;6265154;22;19950;-90
2022/09/14 03:44:42;;;;;;;;;;;;;;;;;;6288553;22;19984;-91
2022/09/14 03:47:08;;;;;;;;;;;;;;;;;;6265094;22;19958;-91
2022/09/14 03:49:34;;;;;;;;;;;;;;;;;;6262738;22;20242;-90
2022/09/14 03:52:00;;;;;;;;;;;;;;;;;;6296060;22;19918;-90
2022/09/14 03:54:26;;;;;;;;;;;;;;;;;;6324341;22;20320;-90
2022/09/14 03:56:52;;;;;;;;;;;;;;;;;;6293161;22;19919;-90
2022/09/14 03:59:18;;;;;;;;;;;;;;;;;;6296916;22;20347;-90
2022/09/14 04:01:44;;;;;;;;;;;;;;;;;;6267831;22;20299;-90
2022/09/14 04:04:10;;;;;;;;;;;;;;;;;;6298371;22;19935;-91
2022/09/14 04:06:36;;;;;;;;;;;;;;;;;;6269377;22;20293;-90
2022/09/14 04:09:02;;;;;;;;;;;;;;;;;;6290238;22;20261;-91
2022/09/14 04:11:30;;;;;;;;;;;;;;;;;;6270004;22;20370;-92
2022/09/14 04:13:59;;;;;;;;;;;;;;;;;;6270517;22;19930;-91
2022/09/14 04:19:41;;;;;;;;;;;;;;;;;;6270266;22;20276;-90
2022/09/14 04:22:06;;;;;;;;;;;;;;;;;;6297084;22;20014;-91
2022/09/14 04:24:32;;;;;;;;;;;;;;;;;;6267778;22;19914;-91
2022/09/14 04:26:58;;;;;;;;;;;;;;;;;;6271376;22;19914;-92
2022/09/14 04:29:24;;;;;;;;;;;;;;;;;;6296108;22;20286;-91
2022/09/14 04:31:50;;;;;;;;;;;;;;;;;;6264468;22;19918;-90
2022/09/14 04:34:16;;;;;;;;;;;;;;;;;;6271112;22;19922;-90
2022/09/14 04:36:42;;;;;;;;;;;;;;;;;;6269415;22;19985;-90
2022/09/14 04:39:08;;;;;;;;;;;;;;;;;;6270835;22;20236;-91
2022/09/14 04:41:34;;;;;;;;;;;;;;;;;;6292716;22;20312;-90
2022/09/14 04:44:00;;;;;;;;;;;;;;;;;;6269928;22;19915;-90
2022/09/14 04:46:26;;;;;;;;;;;;;;;;;;6271962;22;20247;-91
2022/09/14 04:48:52;;;;;;;;;;;;;;;;;;6267284;22;19929;-90
2022/09/14 04:51:18;;;;;;;;;;;;;;;;;;6263384;22;20129;-90
2022/09/14 04:53:44;;;;;;;;;;;;;;;;;;6259785;22;19923;-91
2022/09/14 04:56:10;;;;;;;;;;;;;;;;;;6260402;22;20259;-92
2022/09/14 04:58:38;;;;;;;;;;;;;;;;;;6288343;22;19922;-95
2022/09/14 05:01:04;;;;;;;;;;;;;;;;;;6262538;22;20084;-93
2022/09/14 05:03:30;;;;;;;;;;;;;;;;;;6262674;22;19919;-93
2022/09/14 05:05:56;;;;;;;;;;;;;;;;;;6260702;22;19929;-92
2022/09/14 05:08:22;;;;;;;;;;;;;;;;;;6287482;22;19918;-91
2022/09/14 05:10:48;;;;;;;;;;;;;;;;;;6258353;22;19946;-91
2022/09/14 05:13:15;;;;;;;;;;;;;;;;;;6286832;22;19998;-91
2022/09/14 05:15:41;;;;;;;;;;;;;;;;;;6263371;22;19919;-91
2022/09/14 05:18:07;;;;;;;;;;;;;;;;;;6290189;22;19976;-91
2022/09/14 05:20:33;;;;;;;;;;;;;;;;;;6262140;22;20255;-92
2022/09/14 05:22:59;;;;;;;;;;;;;;;;;;6291629;22;19919;-91
2022/09/14 05:25:25;;;;;;;;;;;;;;;;;;6265640;22;19945;-92
2022/09/14 05:27:51;;;;;;;;;;;;;;;;;;6262526;22;20840;-92
2022/09/14 05:30:17;;;;;;;;;;;;;;;;;;6262696;22;19923;-90
2022/09/14 05:32:43;;;;;;;;;;;;;;;;;;6261350;22;20266;-91
2022/09/14 05:35:10;;;;;;;;;;;;;;;;;;6289327;22;19961;-91
2022/09/14 05:37:36;;;;;;;;;;;;;;;;;;6292402;22;20346;-91
2022/09/14 05:40:02;;;;;;;;;;;;;;;;;;6269990;22;20103;-92
2022/09/14 05:42:28;;;;;;;;;;;;;;;;;;6269391;22;19976;-91
2022/09/14 05:44:54;;;;;;;;;;;;;;;;;;6296805;22;19938;-91
2022/09/14 05:47:22;;;;;;;;;;;;;;;;;;6265226;22;19926;-91
2022/09/14 05:49:48;;;;;;;;;;;;;;;;;;6265011;22;20223;-91
2022/09/14 05:52:14;;;;;;;;;;;;;;;;;;6258894;22;20428;-91
2022/09/14 05:54:40;;;;;;;;;;;;;;;;;;6269700;22;19972;-89
2022/09/14 05:57:06;;;;;;;;;;;;;;;;;;6265244;22;19919;-91
2022/09/14 05:59:32;;;;;;;;;;;;;;;;;;6288780;22;19926;-91
2022/09/14 06:01:58;;;;;;;;;;;;;;;;;;6267004;22;19942;-91
2022/09/14 06:04:24;;;;;;;;;;;;;;;;;;6266878;22;19919;-91
2022/09/14 06:06:50;;;;;;;;;;;;;;;;;;6291263;22;19996;-92
2022/09/14 06:09:16;;;;;;;;;;;;;;;;;;6268621;22;20327;-91
2022/09/14 06:11:42;;;;;;;;;;;;;;;;;;6289284;22;19919;-91
2022/09/14 06:14:08;;;;;;;;;;;;;;;;;;6294315;22;19958;-91
2022/09/14 06:16:34;;;;;;;;;;;;;;;;;;6284216;22;19953;-91
2022/09/14 06:19:00;;;;;;;;;;;;;;;;;;6290826;22;19923;-90
2022/09/14 06:21:26;;;;;;;;;;;;;;;;;;6266360;22;20348;-90
2022/09/14 06:23:53;;;;;;;;;;;;;;;;;;6286934;22;20507;-90
2022/09/14 06:26:19;;;;;;;;;;;;;;;;;;6290627;22;19946;-91
2022/09/14 06:28:45;;;;;;;;;;;;;;;;;;6286459;22;19950;-91
2022/09/14 06:31:11;;;;;;;;;;;;;;;;;;6263689;22;20001;-91
2022/09/14 06:33:37;;;;;;;;;;;;;;;;;;6282641;22;19971;-91
2022/09/14 06:36:03;;;;;;;;;;;;;;;;;;6262010;22;20336;-90
2022/09/14 06:38:29;;;;;;;;;;;;;;;;;;6262047;22;19926;-91
2022/09/14 06:40:58;;;;;;;;;;;;;;;;;;6284667;22;19915;-91
2022/09/14 06:43:24;;;;;;;;;;;;;;;;;;6259847;22;20324;-89
2022/09/14 06:45:50;;;;;;;;;;;;;;;;;;6259851;22;19950;-91
2022/09/14 06:48:16;;;;;;;;;;;;;;;;;;6262421;22;19993;-91
2022/09/14 06:50:42;;;;;;;;;;;;;;;;;;6261516;22;19925;-91
2022/09/14 06:53:08;;;;;;;;;;;;;;;;;;6265095;22;20026;-91
2022/09/14 06:55:34;;;;;;;;;;;;;;;;;;6286471;22;19942;-91
2022/09/14 06:58:00;;;;;;;;;;;;;;;;;;6264543;22;19915;-91
2022/09/14 07:00:26;;;;;;;;;;;;;;;;;;6260874;22;19985;-91
2022/09/14 07:02:52;;;;;;;;;;;;;;;;;;6282682;22;20025;-91
2022/09/14 07:05:19;;;;;;;;;;;;;;;;;;6262977;22;19922;-90
2022/09/14 07:07:45;;;;;;;;;;;;;;;;;;6286105;22;19946;-91
2022/09/14 07:10:11;;;;;;;;;;;;;;;;;;6285402;22;19919;-91
2022/09/14 07:12:37;;;;;;;;;;;;;;;;;;6259316;22;19923;-90
2022/09/14 07:15:06;;;;;;;;;;;;;;;;;;6262214;22;19922;-91
2022/09/14 07:17:32;;;;;;;;;;;;;;;;;;6260980;22;19915;-91
2022/09/14 07:19:58;;;;;;;;;;;;;;;;;;6287892;22;19998;-91
2022/09/14 07:22:24;;;;;;;;;;;;;;;;;;6268519;22;19919;-91
2022/09/14 07:24:50;;;;;;;;;;;;;;;;;;6288989;22;19942;-91
2022/09/14 07:27:16;;;;;;;;;;;;;;;;;;6292353;22;20037;-90
2022/09/14 07:29:42;;;;;;;;;;;;;;;;;;6262655;22;19998;-91
2022/09/14 07:32:08;;;;;;;;;;;;;;;;;;6261600;22;19925;-90
2022/09/14 07:34:34;;;;;;;;;;;;;;;;;;6261117;22;19930;-92
2022/09/14 07:37:00;;;;;;;;;;;;;;;;;;6290675;22;19919;-91
2022/09/14 07:39:26;;;;;;;;;;;;;;;;;;6292204;22;19934;-90
2022/09/14 07:41:52;;;;;;;;;;;;;;;;;;6286475;22;20527;-91
2022/09/14 07:44:18;;;;;;;;;;;;;;;;;;6265419;22;19926;-91
2022/09/14 07:46:44;;;;;;;;;;;;;;;;;;6285775;22;19919;-91
2022/09/14 07:49:10;;;;;;;;;;;;;;;;;;6289170;22;19923;-91
2022/09/14 07:51:36;;;;;;;;;;;;;;;;;;6262318;22;20021;-90
2022/09/14 07:54:02;;;;;;;;;;;;;;;;;;6290370;22;19922;-91
2022/09/14 07:56:28;;;;;;;;;;;;;;;;;;6291439;22;19963;-90
2022/09/14 07:58:55;;;;;;;;;;;;;;;;;;6255438;22;19979;-91
2022/09/14 08:01:22;;;;;;;;;;;;;;;;;;6257664;22;20236;-90
2022/09/14 08:03:48;;;;;;;;;;;;;;;;;;6255802;22;19993;-90
2022/09/14 08:06:14;;;;;;;;;;;;;;;;;;6256870;22;19925;-90
2022/09/14 08:08:40;;;;;;;;;;;;;;;;;;6281427;22;19918;-90
2022/09/14 08:11:07;;;;;;;;;;;;;;;;;;6260765;22;19919;-90
2022/09/14 08:13:33;;;;;;;;;;;;;;;;;;6255108;22;20025;-90
2022/09/14 08:15:59;;;;;;;;;;;;;;;;;;6288441;22;20335;-90
2022/09/14 08:18:25;;;;;;;;;;;;;;;;;;6263272;22;19950;-90
2022/09/14 08:20:52;;;;;;;;;;;;;;;;;;6287292;22;20430;-90
2022/09/14 08:23:18;;;;;;;;;;;;;;;;;;6288005;22;19929;-90
2022/09/14 08:25:44;;;;;;;;;;;;;;;;;;6256650;22;19994;-90
2022/09/14 08:28:10;;;;;;;;;;;;;;;;;;6264426;22;19919;-91
2022/09/14 08:30:36;;;;;;;;;;;;;;;;;;6259838;22;19919;-90
2022/09/14 08:33:02;;;;;;;;;;;;;;;;;;6260865;22;19930;-91
2022/09/14 08:35:28;;;;;;;;;;;;;;;;;;6261041;22;20339;-91
2022/09/14 08:37:54;;;;;;;;;;;;;;;;;;6257783;22;19919;-92
2022/09/14 08:40:23;;;;;;;;;;;;;;;;;;6289825;22;20441;-92
2022/09/14 08:42:49;;;;;;;;;;;;;;;;;;6257689;22;19919;-91
2022/09/14 08:45:15;;;;;;;;;;;;;;;;;;6262237;22;19918;-91
2022/09/14 08:47:41;;;;;;;;;;;;;;;;;;6287017;22;19919;-92
2022/09/14 08:50:07;;;;;;;;;;;;;;;;;;6262768;22;19976;-92
2022/09/14 08:52:36;;;;;;;;;;;;;;;;;;6286536;22;20400;-91
2022/09/14 08:55:02;;;;;;;;;;;;;;;;;;6265673;22;20005;-91
2022/09/14 08:57:28;;;;;;;;;;;;;;;;;;6260265;22;19953;-91
2022/09/14 08:59:54;;;;;;;;;;;;;;;;;;6260506;22;20433;-91
2022/09/14 09:02:20;;;;;;;;;;;;;;;;;;6292114;22;19923;-92
2022/09/14 09:04:46;;;;;;;;;;;;;;;;;;6289145;22;19915;-92
2022/09/14 09:07:12;;;;;;;;;;;;;;;;;;6266071;22;20343;-92
2022/09/14 09:09:38;;;;;;;;;;;;;;;;;;6290042;22;19990;-92
2022/09/14 09:12:04;;;;;;;;;;;;;;;;;;6266022;22;19950;-90
2022/09/14 09:14:33;;;;;;;;;;;;;;;;;;6268104;22;20358;-92
2022/09/14 09:16:59;;;;;;;;;;;;;;;;;;6265282;22;19915;-90
2022/09/14 09:19:25;;;;;;;;;;;;;;;;;;6268094;22;19925;-90
2022/09/14 09:21:51;;;;;;;;;;;;;;;;;;6266532;22;20672;-91
2022/09/14 09:24:18;;;;;;;;;;;;;;;;;;6265724;22;20351;-91
2022/09/14 09:26:44;;;;;;;;;;;;;;;;;;6265777;22;19990;-91
2022/09/14 09:29:10;;;;;;;;;;;;;;;;;;6293250;22;19954;-91
2022/09/14 09:31:36;;;;;;;;;;;;;;;;;;6267048;22;20410;-90
2022/09/14 09:34:02;;;;;;;;;;;;;;;;;;6268639;22;20044;-91
2022/09/14 09:36:28;;;;;;;;;;;;;;;;;;6290336;22;19919;-90
2022/09/14 09:38:54;;;;;;;;;;;;;;;;;;6264560;22;19919;-90
2022/09/14 09:41:20;;;;;;;;;;;;;;;;;;6267408;22;19919;-90
2022/09/14 09:43:46;;;;;;;;;;;;;;;;;;6264964;22;19919;-91
2022/09/14 09:46:12;;;;;;;;;;;;;;;;;;6264187;22;19915;-91
2022/09/14 09:48:38;;;;;;;;;;;;;;;;;;6264551;22;19971;-91
2022/09/14 09:51:04;;;;;;;;;;;;;;;;;;6268440;22;19923;-90
2022/09/14 09:53:33;;;;;;;;;;;;;;;;;;6296084;22;19965;-91
2022/09/14 09:55:59;;;;;;;;;;;;;;;;;;6266844;22;20319;-91
2022/09/14 09:58:25;;;;;;;;;;;;;;;;;;6293039;22;19926;-92
2022/09/14 10:00:51;;;;;;;;;;;;;;;;;;6262902;22;20351;-91
2022/09/14 10:03:17;;;;;;;;;;;;;;;;;;6266578;22;19923;-90
2022/09/14 10:05:43;;;;;;;;;;;;;;;;;;6291318;22;19982;-92
2022/09/14 10:08:10;;;;;;;;;;;;;;;;;;6267978;22;19996;-91
2022/09/14 10:10:37;;;;;;;;;;;;;;;;;;6292683;22;19925;-91
2022/09/14 10:13:03;;;;;;;;;;;;;;;;;;6292589;22;20339;-91
2022/09/14 10:15:29;;;;;;;;;;;;;;;;;;6264874;22;20398;-92
2022/09/14 10:17:55;;;;;;;;;;;;;;;;;;6287211;22;19918;-92
2022/09/14 10:20:21;;;;;;;;;;;;;;;;;;6291996;22;19950;-92
2022/09/14 10:22:47;;;;;;;;;;;;;;;;;;6291585;22;20319;-92
2022/09/14 10:25:13;;;;;;;;;;;;;;;;;;6267336;22;19926;-93
2022/09/14 10:27:39;;;;;;;;;;;;;;;;;;6264463;22;19918;-92
2022/09/14 10:30:05;;;;;;;;;;;;;;;;;;6291925;22;19942;-94
2022/09/14 10:32:31;;;;;;;;;;;;;;;;;;6288892;22;20303;-94
2022/09/14 10:35:00;;;;;;;;;;;;;;;;;;6265330;22;20283;-94
2022/09/14 10:37:28;;;;;;;;;;;;;;;;;;6264757;22;19919;-94
2022/09/14 10:39:56;;;;;;;;;;;;;;;;;;6263033;22;19918;-95
2022/09/14 10:42:22;;;;;;;;;;;;;;;;;;6292551;22;20257;-94
2022/09/14 10:44:48;;;;;;;;;;;;;;;;;;6286173;22;19960;-94
2022/09/14 10:47:16;;;;;;;;;;;;;;;;;;6264091;22;19915;-95
2022/09/14 10:49:46;;;;;;;;;;;;;;;;;;6288328;22;19949;-95
2022/09/14 10:52:12;;;;;;;;;;;;;;;;;;6266909;22;19922;-95
2022/09/14 10:54:38;;;;;;;;;;;;;;;;;;6264593;22;19923;-95
2022/09/14 10:57:04;;;;;;;;;;;;;;;;;;6267418;22;19919;-94
2022/09/14 10:59:34;;;;;;;;;;;;;;;;;;6264254;22;19919;-95
2022/09/14 11:02:03;;;;;;;;;;;;;;;;;;6293952;22;19915;-94
2022/09/14 11:04:29;;;;;;;;;;;;;;;;;;6262592;22;20441;-95
2022/09/14 11:06:58;;;;;;;;;;;;;;;;;;6283489;22;19919;-94
2022/09/14 11:09:24;;;;;;;;;;;;;;;;;;6263452;22;20291;-94
2022/09/14 11:11:50;;;;;;;;;;;;;;;;;;6287938;22;19923;-93
2022/09/14 11:14:16;;;;;;;;;;;;;;;;;;6289635;22;20446;-93
2022/09/14 11:16:46;;;;;;;;;;;;;;;;;;6262876;22;19950;-92
2022/09/14 11:19:15;;;;;;;;;;;;;;;;;;6261638;22;19915;-92
2022/09/14 11:21:41;;;;;;;;;;;;;;;;;;6262100;22;19919;-93
2022/09/14 11:24:07;;;;;;;;;;;;;;;;;;6264967;22;19925;-93
2022/09/14 11:26:33;;;;;;;;;;;;;;;;;;6263633;22;20417;-92
2022/09/14 11:28:59;;;;;;;;;;;;;;;;;;6264927;22;19967;-93
2022/09/14 11:31:25;;;;;;;;;;;;;;;;;;6264399;22;20252;-93
2022/09/14 11:33:51;;;;;;;;;;;;;;;;;;6259695;22;20290;-92
2022/09/14 11:36:17;;;;;;;;;;;;;;;;;;6263047;22;20016;-93
2022/09/14 11:38:43;;;;;;;;;;;;;;;;;;6262821;22;19915;-93
2022/09/14 11:41:09;;;;;;;;;;;;;;;;;;6265050;22;20420;-95
2022/09/14 11:43:35;;;;;;;;;;;;;;;;;;6260661;22;19925;-93
2022/09/14 11:46:01;;;;;;;;;;;;;;;;;;6263106;22;19915;-93
2022/09/14 11:48:27;;;;;;;;;;;;;;;;;;6288562;22;19930;-93
2022/09/14 11:50:53;;;;;;;;;;;;;;;;;;6260288;22;19923;-93
2022/09/14 11:53:19;;;;;;;;;;;;;;;;;;6263239;22;19923;-93
2022/09/14 11:55:48;;;;;;;;;;;;;;;;;;6260886;22;19937;-93
2022/09/14 11:58:14;;;;;;;;;;;;;;;;;;6284632;22;20014;-92
2022/09/14 12:00:40;;;;;;;;;;;;;;;;;;6258433;22;19946;-93
2022/09/14 12:03:06;;;;;;;;;;;;;;;;;;6258558;22;20290;-94
2022/09/14 12:05:32;;;;;;;;;;;;;;;;;;6261476;22;19997;-94
2022/09/14 12:07:58;;;;;;;;;;;;;;;;;;6261281;22;19989;-93
2022/09/14 12:10:28;;;;;;;;;;;;;;;;;;6261710;22;19957;-94
2022/09/14 12:12:54;;;;;;;;;;;;;;;;;;6262878;22;20351;-93
2022/09/14 12:15:20;;;;;;;;;;;;;;;;;;6288916;22;19919;-93
2022/09/14 12:17:46;;;;;;;;;;;;;;;;;;6259035;22;19919;-94
2022/09/14 12:20:13;;;;;;;;;;;;;;;;;;6261874;22;19915;-93
2022/09/14 12:22:40;;;;;;;;;;;;;;;;;;6286285;22;19918;-92
2022/09/14 12:25:08;;;;;;;;;;;;;;;;;;6290160;22;19990;-93
2022/09/14 12:27:34;;;;;;;;;;;;;;;;;;6259249;22;19919;-93
2022/09/14 12:30:01;;;;;;;;;;;;;;;;;;6262971;22;19915;-95
2022/09/14 12:32:27;;;;;;;;;;;;;;;;;;6265704;22;19960;-92
2022/09/14 12:35:03;;;;;;;;;;;;;;;;;;6277775;22;20535;-93
2022/09/14 12:37:29;;;;;;;;;;;;;;;;;;6265266;22;19918;-93
2022/09/14 12:39:55;;;;;;;;;;;;;;;;;;6263522;22;20358;-93
2022/09/14 12:42:24;;;;;;;;;;;;;;;;;;6263948;22;19919;-93
2022/09/14 12:44:50;;;;;;;;;;;;;;;;;;6288788;22;20302;-93
2022/09/14 12:47:16;;;;;;;;;;;;;;;;;;6265513;22;20319;-92
2022/09/14 12:49:42;;;;;;;;;;;;;;;;;;6267142;22;20400;-93
2022/09/14 12:52:08;;;;;;;;;;;;;;;;;;6296349;22;20299;-92
2022/09/14 12:54:34;;;;;;;;;;;;;;;;;;6270029;22;19962;-93
2022/09/14 12:57:02;;;;;;;;;;;;;;;;;;6269261;22;19979;-94
2022/09/14 12:59:28;;;;;;;;;;;;;;;;;;6268415;22;19918;-91
2022/09/14 13:01:54;;;;;;;;;;;;;;;;;;6265014;22;19925;-92
2022/09/14 13:04:20;;;;;;;;;;;;;;;;;;6291523;22;19922;-92
2022/09/14 13:06:46;;;;;;;;;;;;;;;;;;6290821;22;20247;-83
2022/09/14 13:09:12;;;;;;;;;;;;;;;;;;6293396;22;19918;-83
2022/09/14 13:11:38;;;;;;;;;;;;;;;;;;6289072;22;19989;-82
2022/09/14 13:14:04;;;;;;;;;;;;;;;;;;6297845;22;19922;-82
2022/09/14 13:16:30;;;;;;;;;;;;;;;;;;6324549;22;19918;-82
2022/09/14 13:19:00;;;;;;;;;;;;;;;;;;6324527;22;19964;-82
2022/09/14 13:21:26;;;;;;;;;;;;;;;;;;6322311;22;19942;-82
2022/09/14 13:23:52;;;;;;;;;;;;;;;;;;6294234;22;20351;-82
2022/09/14 13:26:18;;;;;;;;;;;;;;;;;;6293698;22;19919;-82
2022/09/14 13:28:44;;;;;;;;;;;;;;;;;;6319372;22;20346;-82
2022/09/14 13:31:10;;;;;;;;;;;;;;;;;;6322585;22;19918;-83
2022/09/14 13:33:36;;;;;;;;;;;;;;;;;;6290430;22;19923;-82
2022/09/14 13:36:02;;;;;;;;;;;;;;;;;;6288605;22;19918;-83
2022/09/14 13:38:27;;;;;;;;;;;;;;;;;;6296200;22;19918;-83
2022/09/14 13:40:53;;;;;;;;;;;;;;;;;;6289978;22;19918;-83
2022/09/14 13:43:19;;;;;;;;;;;;;;;;;;6291873;22;20374;-83
2022/09/14 13:45:45;;;;;;;;;;;;;;;;;;6292115;22;19961;-83
2022/09/14 13:48:11;;;;;;;;;;;;;;;;;;6291771;22;20296;-82
2022/09/14 13:50:37;;;;;;;;;;;;;;;;;;6287274;22;20251;-82
2022/09/14 13:53:03;;;;;;;;;;;;;;;;;;6294399;22;19918;-82
2022/09/14 13:55:29;;;;;;;;;;;;;;;;;;6285053;22;19925;-83
2022/09/14 13:57:55;;;;;;;;;;;;;;;;;;6288465;22;20362;-82
2022/09/14 14:00:21;;;;;;;;;;;;;;;;;;6293787;22;20251;-82
2022/09/14 14:02:47;;;;;;;;;;;;;;;;;;6287286;22;20321;-83
2022/09/14 14:05:13;;;;;;;;;;;;;;;;;;6291847;22;20323;-82
2022/09/14 14:07:39;;;;;;;;;;;;;;;;;;6266952;22;19918;-82
2022/09/14 14:10:05;;;;;;;;;;;;;;;;;;6294918;22;19942;-83
2022/09/14 14:12:35;;;;;;;;;;;;;;;;;;6323398;22;19918;-82
2022/09/14 14:15:02;;;;;;;;;;;;;;;;;;6325569;22;20343;-82
2022/09/14 14:17:28;;;;;;;;;;;;;;;;;;6320453;22;20292;-82
2022/09/14 14:19:54;;;;;;;;;;;;;;;;;;6268694;22;19930;-82
2022/09/14 14:22:20;;;;;;;;;;;;;;;;;;6272011;22;19919;-83
2022/09/14 14:24:45;;;;;;;;;;;;;;;;;;6267640;22;20292;-82
2022/09/14 14:27:11;;;;;;;;;;;;;;;;;;6272594;22;19918;-82
2022/09/14 14:29:37;;;;;;;;;;;;;;;;;;6294025;22;19998;-82
2022/09/14 14:32:03;;;;;;;;;;;;;;;;;;6294413;22;19934;-82
2022/09/14 14:34:29;;;;;;;;;;;;;;;;;;6293714;22;19922;-81
2022/09/14 14:36:55;;;;;;;;;;;;;;;;;;6263061;22;19975;-82
2022/09/14 14:39:21;;;;;;;;;;;;;;;;;;6262876;22;19919;-83
2022/09/14 14:41:47;;;;;;;;;;;;;;;;;;6288237;22;20047;-82
2022/09/14 14:44:13;;;;;;;;;;;;;;;;;;6294463;22;20701;-82
2022/09/14 14:46:39;;;;;;;;;;;;;;;;;;6263994;22;19918;-81
2022/09/14 14:49:05;;;;;;;;;;;;;;;;;;6270535;22;20263;-83
2022/09/14 14:51:34;;;;;;;;;;;;;;;;;;6288670;22;19922;-83
2022/09/14 14:54:00;;;;;;;;;;;;;;;;;;6296226;22;19985;-83
2022/09/14 14:56:27;;;;;;;;;;;;;;;;;;6269697;22;20279;-83
2022/09/14 14:58:52;;;;;;;;;;;;;;;;;;6262315;22;19925;-83
2022/09/14 15:01:18;;;;;;;;;;;;;;;;;;6293363;22;20406;-83
2022/09/14 15:03:45;;;;;;;;;;;;;;;;;;6263684;22;20304;-83
2022/09/14 15:06:11;;;;;;;;;;;;;;;;;;6297952;22;19925;-82
2022/09/14 15:08:36;;;;;;;;;;;;;;;;;;6293718;22;19919;-83
2022/09/14 15:11:02;;;;;;;;;;;;;;;;;;6297080;22;20286;-83
2022/09/14 15:13:28;;;;;;;;;;;;;;;;;;6291128;22;20033;-83
2022/09/14 15:15:54;;;;;;;;;;;;;;;;;;6265776;22;19914;-83
2022/09/14 15:18:20;;;;;;;;;;;;;;;;;;6268551;22;19927;-84
2022/09/14 15:20:46;;;;;;;;;;;;;;;;;;6292916;22;19918;-83
2022/09/14 15:23:13;;;;;;;;;;;;;;;;;;6297336;22;19941;-83
2022/09/14 15:25:39;;;;;;;;;;;;;;;;;;6293747;22;19918;-85
2022/09/14 15:28:05;;;;;;;;;;;;;;;;;;6266720;22;19919;-83
2022/09/14 15:30:34;;;;;;;;;;;;;;;;;;6265346;22;19972;-83
2022/09/14 15:33:00;;;;;;;;;;;;;;;;;;6290273;22;20449;-83
2022/09/14 15:35:25;;;;;;;;;;;;;;;;;;6289147;22;19919;-83
2022/09/14 15:37:51;;;;;;;;;;;;;;;;;;6286941;22;20789;-83
2022/09/14 15:40:17;;;;;;;;;;;;;;;;;;6291015;22;20408;-83
2022/09/14 15:42:43;;;;;;;;;;;;;;;;;;6259546;22;20228;-83
2022/09/14 15:45:09;;;;;;;;;;;;;;;;;;6290953;22;20021;-83
2022/09/14 15:47:35;;;;;;;;;;;;;;;;;;6263383;22;20358;-82
2022/09/14 15:50:01;;;;;;;;;;;;;;;;;;6289970;22;19933;-83
2022/09/14 15:52:27;;;;;;;;;;;;;;;;;;6290525;22;19918;-83
2022/09/14 15:54:54;;;;;;;;;;;;;;;;;;6288282;22;20397;-82
2022/09/14 15:57:20;;;;;;;;;;;;;;;;;;6283468;22;20427;-82
2022/09/14 15:59:45;;;;;;;;;;;;;;;;;;6285391;22;20298;-82
2022/09/14 16:02:11;;;;;;;;;;;;;;;;;;6279194;22;19915;-82
2022/09/14 16:04:37;;;;;;;;;;;;;;;;;;6253545;22;19923;-83
2022/09/14 16:07:08;;;;;;;;;;;;;;;;;;6256514;22;19973;-82
2022/09/14 16:09:34;;;;;;;;;;;;;;;;;;6285357;22;19918;-82
2022/09/14 16:12:00;;;;;;;;;;;;;;;;;;6284188;22;19926;-82
2022/09/14 16:14:26;;;;;;;;;;;;;;;;;;6287398;22;19923;-81
2022/09/14 16:16:52;;;;;;;;;;;;;;;;;;6280689;22;20467;-82
2022/09/14 16:19:18;;;;;;;;;;;;;;;;;;6284728;22;19922;-82
2022/09/14 16:21:44;;;;;;;;;;;;;;;;;;6280968;22;19919;-82
2022/09/14 16:24:10;;;;;;;;;;;;;;;;;;6285614;22;19918;-82
2022/09/14 16:26:35;;;;;;;;;;;;;;;;;;6280105;22;20334;-82
2022/09/14 16:29:01;;;;;;;;;;;;;;;;;;6285426;22;19962;-82
2022/09/14 16:31:27;;;;;;;;;;;;;;;;;;6262082;22;19923;-82
2022/09/14 16:33:54;;;;;;;;;;;;;;;;;;6281680;22;20040;-82
2022/09/14 16:36:20;;;;;;;;;;;;;;;;;;6260491;22;20428;-82
2022/09/14 16:38:45;;;;;;;;;;;;;;;;;;6283878;22;20346;-82
2022/09/14 16:41:11;;;;;;;;;;;;;;;;;;6281322;22;19919;-82